Weather observations for the past three days for
Port Angeles Fairchild International Airport
Metric (Imperial)
Date Time (pdt) Wind (kph) Vis. (km) Weather Sky Cond. Temperature (ºC) Relative Humidity Wind Chill (°C) Heat Index (°C) Pressure Precipitation (cm)
Air Dwpt 6 hour altimeter (cm) sea level (mb) 1 hr 3 hr 6 hr
Max. Min.
10 07:53 W 17 G 30 16.09 Fair CLR 11.7 7.2 74% 76.35 1017.8
10 06:53 W 6 16.09 Fair CLR 10.6 6.1 74% 76.33 1017.7
10 05:53 W 15 16.09 Fair CLR 10.6 6.1 74% 76.3 1017.3
10 04:53 W 9 16.09 Fair CLR 10 6.7 10.6 8.9 80% 9 76.28 1016.9
10 03:53 W 7 16.09 Fair CLR 9.4 7.8 90% 9 76.28 1016.9
10 02:53 W 15 16.09 Fair CLR 10.6 7.2 80% 76.28 1017.0
10 01:53 W 20 16.09 Fair CLR 10.6 7.2 80% 76.3 1017.2
10 00:53 W 19 16.09 Fair CLR 10.6 7.8 83% 76.28 1017.0
09 23:53 W 20 16.09 Fair CLR 10.6 8.3 86% 76.28 1016.9
09 22:53 W 17 16.09 Fair CLR 10.6 7.8 17.2 10.6 83% 76.28 1017.1
09 21:53 W 9 16.09 Fair CLR 10.6 7.8 83% 76.3 1017.3
09 20:53 W 15 16.09 Fair CLR 11.1 8.3 83% 76.3 1017.3
09 19:53 NW 7 16.09 Fair CLR 13.9 8.9 72% 76.28 1016.8
09 18:53 Calm 16.09 Fair CLR 16.1 6.1 52% 76.3 1017.3
09 17:53 E 9 16.09 Fair CLR 17.2 6.1 48% 76.33 1017.7
09 16:53 E 9 16.09 Fair CLR 16.7 6.7 17.2 12.2 52% 76.38 1018.5
09 15:53 Vrbl 7 16.09 Fair CLR 15.6 8.3 62% 76.45 1019.4
09 14:53 Vrbl 9 16.09 Fair CLR 15.6 8.3 62% 76.53 1020.4
09 13:53 Vrbl 7 16.09 Fair CLR 15 8.9 67% 76.56 1020.9
09 12:53 NW 7 16.09 Fair CLR 13.3 8.3 72% 76.61 1021.4
09 11:53 NW 9 16.09 Fair CLR 13.3 8.3 72% 76.63 1021.9
09 10:53 N 7 16.09 Fair CLR 12.2 8.9 12.8 5.6 80% 76.66 1022.0
09 09:53 Vrbl 6 16.09 Fair CLR 11.7 8.9 83% 76.66 1022.1
09 08:53 N 7 16.09 Fair CLR 11.7 7.2 74% 76.66 1022.2
09 07:53 Calm 16.09 Fair CLR 10.6 7.2 80% 76.68 1022.5
09 06:53 SW 7 16.09 Fair CLR 7.8 6.1 89% 7 76.71 1022.7
09 05:53 SW 9 16.09 Fair CLR 7.2 5.6 90% 6 76.71 1022.7
09 04:53 SW 9 16.09 Partly Cloudy SCT048 7.2 5.6 8.9 5.6 90% 6 76.71 1022.8
09 03:53 SW 9 16.09 Overcast OVC048 7.8 6.1 89% 6 76.71 1022.9
09 02:53 SW 11 16.09 Partly Cloudy SCT045 7.2 6.1 93% 5 76.71 1022.8
09 01:53 Calm 14.48 Fair CLR 6.1 5 93% 76.71 1022.9
09 00:53 Calm 16.09 Fair CLR 6.1 5.6 97% 76.73 1023.1
08 23:53 SW 6 16.09 Fair CLR 6.7 5.6 93% 76.73 1023.0
08 22:53 Calm 16.09 Fair CLR 6.7 6.1 14.4 6.7 96% 76.71 1022.9
08 21:53 Calm 16.09 A Few Clouds FEW060 7.8 6.1 89% 76.71 1022.8
08 20:53 Calm 16.09 Overcast OVC065 11.1 6.7 75% 76.68 1022.6
08 19:53 NW 6 16.09 Fair CLR 11.1 6.7 75% 76.66 1022.2
08 18:53 W 11 16.09 Partly Cloudy SCT075 12.8 6.7 67% 76.66 1022.0
08 17:53 NW 13 16.09 Partly Cloudy SCT060 13.3 6.7 65% 76.66 1022.0
08 16:53 W 17 16.09 Overcast OVC060 13.3 6.1 13.3 10.6 62% 76.66 1022.0
08 15:53 Vrbl 11 16.09 Mostly Cloudy BKN034 12.8 6.1 64% 76.63 1021.9
08 14:53 NW 9 16.09 A Few Clouds FEW032 12.2 5.6 64% 76.63 1021.7
08 13:53 Vrbl 9 16.09 Overcast OVC029 12.2 6.1 67% 76.61 1021.4
08 12:53 NW 15 G 28 16.09 Overcast OVC030 11.7 6.1 69% 76.58 1021.0
08 11:53 W 15 G 30 16.09 Overcast OVC028 10.6 6.1 74% 76.53 1020.5
08 10:53 NW 19 16.09 Overcast OVC024 10.6 6.1 10.6 8.3 74% 76.5 1020.2
08 09:53 W 17 16.09 Overcast OVC021 10 6.1 77% 8 76.48 1019.6
08 08:53 W 17 16.09 Overcast OVC017 10 6.7 80% 8 76.43 1019.0
08 07:53 W 15 16.09 Overcast OVC017 10 7.2 83% 8 76.4 1018.5
08 06:53 Vrbl 11 16.09 Overcast OVC016 9.4 7.2 86% 8 76.35 1017.9
08 05:53 SW 7 16.09 Overcast OVC016 8.9 7.2 89% 8 76.3 1017.4
08 04:53 W 9 16.09 Mostly Cloudy BKN016 8.3 7.2 8.3 6.7 93% 7 76.3 1017.4
08 03:53 Calm 16.09 Fair CLR 7.8 6.7 93% 76.28 1016.9
08 02:53 W 6 16.09 Fair CLR 7.8 6.7 93% 76.25 1016.8
08 01:53 Calm 16.09 Fair CLR 7.2 6.7 97% 76.23 1016.5
08 00:53 Calm 16.09 Fair CLR 7.2 6.7 97% 76.23 1016.4
07 23:53 S 6 16.09 Fair CLR 8.3 6.7 90% 76.25 1016.7
07 22:53 Calm 16.09 Fair CLR 8.3 6.7 12.8 7.8 90% 76.28 1016.9
07 21:53 W 7 16.09 Fair CLR 8.3 6.1 86% 7 76.28 1017.1
07 20:53 W 7 16.09 Fair CLR 9.4 6.7 83% 9 76.3 1017.2
07 19:53 W 7 16.09 Fair CLR 10.6 7.2 80% 76.3 1017.4
07 18:53 NW 9 16.09 Overcast OVC048 11.7 7.8 77% 76.35 1018.0
07 17:53 NW 13 16.09 Overcast OVC048 11.7 7.8 77% 76.38 1018.3
07 16:53 NW 9 16.09 Overcast OVC050 12.8 7.8 13.9 11.7 72% 76.4 1018.5
07 15:53 Vrbl 6 16.09 Fair CLR 12.8 7.8 72% 76.4 1018.8
07 14:53 NE 7 16.09 Fair CLR 13.3 7.8 70% 76.45 1019.3
07 13:53 N 7 16.09 Fair CLR 13.3 7.8 70% 76.48 1019.9
07 12:53 Vrbl 7 16.09 Fair CLR 12.8 8.3 74% 76.53 1020.4
07 11:53 NW 11 16.09 Fair CLR 12.2 6.7 69% 76.53 1020.5
07 10:53 NW 13 16.09 Mostly Cloudy BKN024 11.7 6.1 12.2 3.9 69% 76.56 1020.7
07 09:53 N 13 16.09 Overcast OVC026 11.1 5.6 69% 76.56 1020.7
07 08:53 Vrbl 7 16.09 Fair CLR 11.1 6.1 72% 76.58 1020.9
Date Time (pdt) Wind (kph) Vis. (km) Weather Sky Cond. Air Dwpt Max. Min. Relative Humidity Wind Chill (°C) Heat Index (°C) altimeter (cm) sea level (mb) 1 hr 3 hr 6 hr
6 hour
Temperature (ºC) Pressure Precipitation (cm)